sensor_id;sensor_type;location;lat;lon;timestamp;temperature;humidity
17387;DHT22;8811;52.398;9.728;2022-09-09T06:25:00;16.40;99.90
17387;DHT22;8811;52.398;9.728;2022-09-09T06:27:28;16.50;99.90
17387;DHT22;8811;52.398;9.728;2022-09-09T06:29:55;16.60;99.90
17387;DHT22;8811;52.398;9.728;2022-09-09T06:32:22;16.60;99.90
17387;DHT22;8811;52.398;9.728;2022-09-09T06:34:50;16.60;99.90
17387;DHT22;8811;52.398;9.728;2022-09-09T06:37:17;16.60;99.90
17387;DHT22;8811;52.398;9.728;2022-09-09T06:39:45;16.70;99.90
17387;DHT22;8811;52.398;9.728;2022-09-09T06:42:14;16.70;99.90
17387;DHT22;8811;52.398;9.728;2022-09-09T06:44:41;16.60;99.90
17387;DHT22;8811;52.398;9.728;2022-09-09T06:47:09;16.70;99.90
17387;DHT22;8811;52.398;9.728;2022-09-09T06:49:36;16.70;99.90
17387;DHT22;8811;52.398;9.728;2022-09-09T06:52:04;16.80;99.90
17387;DHT22;8811;52.398;9.728;2022-09-09T06:54:31;16.80;99.90
17387;DHT22;8811;52.398;9.728;2022-09-09T06:57:04;16.90;99.90
17387;DHT22;8811;52.398;9.728;2022-09-09T06:59:41;17.10;99.90
17387;DHT22;8811;52.398;9.728;2022-09-09T07:02:10;17.30;99.90
17387;DHT22;8811;52.398;9.728;2022-09-09T07:04:42;17.40;99.90
17387;DHT22;8811;52.398;9.728;2022-09-09T07:07:11;17.50;99.90
17387;DHT22;8811;52.398;9.728;2022-09-09T07:09:42;17.60;99.90
17387;DHT22;8811;52.398;9.728;2022-09-09T07:12:12;17.60;99.90
17387;DHT22;8811;52.398;9.728;2022-09-09T07:14:43;17.60;99.90
17387;DHT22;8811;52.398;9.728;2022-09-09T07:17:15;17.40;99.90
17387;DHT22;8811;52.398;9.728;2022-09-09T07:19:44;17.60;99.90
17387;DHT22;8811;52.398;9.728;2022-09-09T07:22:15;17.70;99.90
17387;DHT22;8811;52.398;9.728;2022-09-09T07:24:45;18.00;99.90
17387;DHT22;8811;52.398;9.728;2022-09-09T07:27:13;18.20;99.90
17387;DHT22;8811;52.398;9.728;2022-09-09T07:29:42;18.50;99.90
17387;DHT22;8811;52.398;9.728;2022-09-09T07:32:11;18.70;99.90
17387;DHT22;8811;52.398;9.728;2022-09-09T07:34:38;18.90;99.90
17387;DHT22;8811;52.398;9.728;2022-09-09T07:37:05;19.20;99.90
17387;DHT22;8811;52.398;9.728;2022-09-09T07:39:33;19.40;99.90
17387;DHT22;8811;52.398;9.728;2022-09-09T07:42:00;19.60;99.90
17387;DHT22;8811;52.398;9.728;2022-09-09T07:44:27;19.70;99.90
17387;DHT22;8811;52.398;9.728;2022-09-09T07:46:56;20.00;99.90
17387;DHT22;8811;52.398;9.728;2022-09-09T07:49:23;20.10;99.90
17387;DHT22;8811;52.398;9.728;2022-09-09T07:51:50;20.30;99.90
17387;DHT22;8811;52.398;9.728;2022-09-09T07:54:18;20.40;99.90
17387;DHT22;8811;52.398;9.728;2022-09-09T07:56:49;20.60;99.90
17387;DHT22;8811;52.398;9.728;2022-09-09T07:59:16;20.70;99.90
17387;DHT22;8811;52.398;9.728;2022-09-09T08:01:44;20.80;99.90
17387;DHT22;8811;52.398;9.728;2022-09-09T08:04:14;20.90;99.90
17387;DHT22;8811;52.398;9.728;2022-09-09T08:06:42;21.20;99.90
17387;DHT22;8811;52.398;9.728;2022-09-09T08:09:10;21.50;99.90
17387;DHT22;8811;52.398;9.728;2022-09-09T08:11:37;21.60;99.90
17387;DHT22;8811;52.398;9.728;2022-09-09T08:14:05;21.30;99.90
17387;DHT22;8811;52.398;9.728;2022-09-09T08:16:33;21.30;99.90
17387;DHT22;8811;52.398;9.728;2022-09-09T08:19:02;21.30;99.90
17387;DHT22;8811;52.398;9.728;2022-09-09T08:21:31;21.20;99.90
17387;DHT22;8811;52.398;9.728;2022-09-09T08:23:59;21.10;99.90
17387;DHT22;8811;52.398;9.728;2022-09-09T08:26:27;21.10;99.90
17387;DHT22;8811;52.398;9.728;2022-09-09T08:28:54;21.20;99.90
17387;DHT22;8811;52.398;9.728;2022-09-09T08:31:22;21.20;99.90
17387;DHT22;8811;52.398;9.728;2022-09-09T08:33:50;21.40;99.90
17387;DHT22;8811;52.398;9.728;2022-09-09T08:36:18;21.50;99.90
17387;DHT22;8811;52.398;9.728;2022-09-09T08:38:48;21.40;99.90
17387;DHT22;8811;52.398;9.728;2022-09-09T08:41:22;21.30;99.90
17387;DHT22;8811;52.398;9.728;2022-09-09T08:43:58;21.10;99.90
17387;DHT22;8811;52.398;9.728;2022-09-09T08:46:28;21.00;99.90
17387;DHT22;8811;52.398;9.728;2022-09-09T08:48:58;20.90;99.90
17387;DHT22;8811;52.398;9.728;2022-09-09T08:51:29;21.00;99.90
17387;DHT22;8811;52.398;9.728;2022-09-09T08:54:01;21.00;99.90
17387;DHT22;8811;52.398;9.728;2022-09-09T08:56:28;21.00;99.90
17387;DHT22;8811;52.398;9.728;2022-09-09T08:58:59;21.20;99.90
17387;DHT22;8811;52.398;9.728;2022-09-09T09:01:39;21.30;99.90
17387;DHT22;8811;52.398;9.728;2022-09-09T09:04:13;21.50;99.90
17387;DHT22;8811;52.398;9.728;2022-09-09T09:06:45;21.60;99.90
17387;DHT22;8811;52.398;9.728;2022-09-09T09:09:20;21.80;99.90
17387;DHT22;8811;52.398;9.728;2022-09-09T09:11:48;21.80;99.90
17387;DHT22;8811;52.398;9.728;2022-09-09T09:14:17;21.90;99.90
17387;DHT22;8811;52.398;9.728;2022-09-09T09:16:48;22.00;99.90
17387;DHT22;8811;52.398;9.728;2022-09-09T09:19:17;21.80;99.90
17387;DHT22;8811;52.398;9.728;2022-09-09T09:21:49;21.90;99.90
17387;DHT22;8811;52.398;9.728;2022-09-09T09:24:19;21.90;99.90
17387;DHT22;8811;52.398;9.728;2022-09-09T09:26:46;21.80;99.90
17387;DHT22;8811;52.398;9.728;2022-09-09T09:29:15;21.80;99.90
17387;DHT22;8811;52.398;9.728;2022-09-09T09:31:43;21.90;99.90
17387;DHT22;8811;52.398;9.728;2022-09-09T09:34:13;21.90;99.90
17387;DHT22;8811;52.398;9.728;2022-09-09T09:36:41;22.00;99.90
17387;DHT22;8811;52.398;9.728;2022-09-09T09:39:10;22.00;99.90
17387;DHT22;8811;52.398;9.728;2022-09-09T09:41:39;22.20;99.90
17387;DHT22;8811;52.398;9.728;2022-09-09T09:44:20;22.40;99.90
17387;DHT22;8811;52.398;9.728;2022-09-09T09:46:48;22.70;99.90
17387;DHT22;8811;52.398;9.728;2022-09-09T09:49:15;23.20;99.90
17387;DHT22;8811;52.398;9.728;2022-09-09T09:51:42;23.90;99.90
17387;DHT22;8811;52.398;9.728;2022-09-09T09:54:14;24.70;99.90
17387;DHT22;8811;52.398;9.728;2022-09-09T09:56:44;25.40;99.90
17387;DHT22;8811;52.398;9.728;2022-09-09T09:59:23;25.70;99.90
17387;DHT22;8811;52.398;9.728;2022-09-09T10:01:50;25.60;99.90
17387;DHT22;8811;52.398;9.728;2022-09-09T10:04:18;25.30;99.90
17387;DHT22;8811;52.398;9.728;2022-09-09T10:06:49;25.70;99.90
17387;DHT22;8811;52.398;9.728;2022-09-09T10:09:22;25.90;99.90
17387;DHT22;8811;52.398;9.728;2022-09-09T10:11:53;26.60;99.90
17387;DHT22;8811;52.398;9.728;2022-09-09T10:14:23;27.10;99.90
17387;DHT22;8811;52.398;9.728;2022-09-09T10:16:58;26.90;99.90
17387;DHT22;8811;52.398;9.728;2022-09-09T10:19:30;26.60;99.90
17387;DHT22;8811;52.398;9.728;2022-09-09T10:22:02;26.60;99.90
17387;DHT22;8811;52.398;9.728;2022-09-09T10:24:36;26.80;99.90
17387;DHT22;8811;52.398;9.728;2022-09-09T10:27:10;27.30;99.90
17387;DHT22;8811;52.398;9.728;2022-09-09T10:29:41;27.50;99.70
17387;DHT22;8811;52.398;9.728;2022-09-09T10:32:17;27.40;98.90
17387;DHT22;8811;52.398;9.728;2022-09-09T10:34:53;27.20;99.10
17387;DHT22;8811;52.398;9.728;2022-09-09T10:37:25;27.10;99.10
17387;DHT22;8811;52.398;9.728;2022-09-09T10:39:54;26.40;99.50
17387;DHT22;8811;52.398;9.728;2022-09-09T10:42:28;25.70;99.90
17387;DHT22;8811;52.398;9.728;2022-09-09T10:45:00;25.20;99.90
17387;DHT22;8811;52.398;9.728;2022-09-09T10:47:39;24.60;99.90
17387;DHT22;8811;52.398;9.728;2022-09-09T10:50:18;24.30;99.90
17387;DHT22;8811;52.398;9.728;2022-09-09T10:52:51;23.90;99.90
17387;DHT22;8811;52.398;9.728;2022-09-09T10:55:20;23.60;99.90
17387;DHT22;8811;52.398;9.728;2022-09-09T10:57:53;23.40;99.90
17387;DHT22;8811;52.398;9.728;2022-09-09T11:00:21;23.00;99.90
17387;DHT22;8811;52.398;9.728;2022-09-09T11:02:51;22.70;99.90
17387;DHT22;8811;52.398;9.728;2022-09-09T11:05:20;22.40;99.90
17387;DHT22;8811;52.398;9.728;2022-09-09T11:07:48;22.10;99.90
17387;DHT22;8811;52.398;9.728;2022-09-09T11:10:20;21.90;99.90
17387;DHT22;8811;52.398;9.728;2022-09-09T11:12:50;21.80;99.90
17387;DHT22;8811;52.398;9.728;2022-09-09T11:15:22;21.60;99.90
17387;DHT22;8811;52.398;9.728;2022-09-09T11:17:52;21.50;99.90
17387;DHT22;8811;52.398;9.728;2022-09-09T11:20:22;21.20;99.90
17387;DHT22;8811;52.398;9.728;2022-09-09T11:22:51;21.10;99.90
17387;DHT22;8811;52.398;9.728;2022-09-09T11:25:22;20.90;99.90
17387;DHT22;8811;52.398;9.728;2022-09-09T11:27:53;20.80;99.90
17387;DHT22;8811;52.398;9.728;2022-09-09T11:30:25;20.60;99.90
17387;DHT22;8811;52.398;9.728;2022-09-09T11:33:08;20.50;99.90
17387;DHT22;8811;52.398;9.728;2022-09-09T11:35:43;20.30;99.90
17387;DHT22;8811;52.398;9.728;2022-09-09T11:38:22;20.10;99.90
17387;DHT22;8811;52.398;9.728;2022-09-09T11:40:55;19.90;99.90
17387;DHT22;8811;52.398;9.728;2022-09-09T11:43:26;19.70;99.90
17387;DHT22;8811;52.398;9.728;2022-09-09T11:45:55;19.50;99.90
17387;DHT22;8811;52.398;9.728;2022-09-09T11:48:26;19.20;99.90
17387;DHT22;8811;52.398;9.728;2022-09-09T11:50:57;19.00;99.90
17387;DHT22;8811;52.398;9.728;2022-09-09T11:53:24;18.70;99.90
17387;DHT22;8811;52.398;9.728;2022-09-09T11:56:11;18.60;99.90
17387;DHT22;8811;52.398;9.728;2022-09-09T11:58:43;18.50;99.90
17387;DHT22;8811;52.398;9.728;2022-09-09T12:04:05;18.20;99.90
17387;DHT22;8811;52.398;9.728;2022-09-09T12:06:41;18.10;99.90
17387;DHT22;8811;52.398;9.728;2022-09-09T12:09:12;18.00;99.90
17387;DHT22;8811;52.398;9.728;2022-09-09T12:11:42;18.00;99.90
17387;DHT22;8811;52.398;9.728;2022-09-09T12:14:18;18.00;99.90
17387;DHT22;8811;52.398;9.728;2022-09-09T12:16:46;18.00;99.90
17387;DHT22;8811;52.398;9.728;2022-09-09T12:19:15;18.10;99.90
17387;DHT22;8811;52.398;9.728;2022-09-09T12:21:45;18.20;99.90
17387;DHT22;8811;52.398;9.728;2022-09-09T12:24:16;18.60;99.90
17387;DHT22;8811;52.398;9.728;2022-09-09T12:26:47;19.30;99.90
17387;DHT22;8811;52.398;9.728;2022-09-09T12:29:22;20.30;99.90
17387;DHT22;8811;52.398;9.728;2022-09-09T12:31:53;21.20;99.90
17387;DHT22;8811;52.398;9.728;2022-09-09T12:34:27;21.50;99.90
17387;DHT22;8811;52.398;9.728;2022-09-09T12:36:57;21.60;99.90
17387;DHT22;8811;52.398;9.728;2022-09-09T12:39:27;21.70;99.90
17387;DHT22;8811;52.398;9.728;2022-09-09T12:41:56;22.00;99.90
17387;DHT22;8811;52.398;9.728;2022-09-09T12:44:24;23.10;99.90
17387;DHT22;8811;52.398;9.728;2022-09-09T12:46:53;25.60;99.90
17387;DHT22;8811;52.398;9.728;2022-09-09T12:49:29;26.70;99.90
17387;DHT22;8811;52.398;9.728;2022-09-09T12:52:01;26.50;99.90
17387;DHT22;8811;52.398;9.728;2022-09-09T12:54:28;26.30;99.90
17387;DHT22;8811;52.398;9.728;2022-09-09T12:56:56;25.80;99.90
17387;DHT22;8811;52.398;9.728;2022-09-09T12:59:25;24.90;99.90
17387;DHT22;8811;52.398;9.728;2022-09-09T13:01:55;24.20;99.90
17387;DHT22;8811;52.398;9.728;2022-09-09T13:04:22;23.70;99.90
17387;DHT22;8811;52.398;9.728;2022-09-09T13:06:59;23.50;99.90
17387;DHT22;8811;52.398;9.728;2022-09-09T13:09:35;23.50;99.90
17387;DHT22;8811;52.398;9.728;2022-09-09T13:12:04;23.80;99.90
17387;DHT22;8811;52.398;9.728;2022-09-09T13:14:35;23.50;99.90
17387;DHT22;8811;52.398;9.728;2022-09-09T13:17:04;23.00;99.90
17387;DHT22;8811;52.398;9.728;2022-09-09T13:19:34;22.60;99.90
17387;DHT22;8811;52.398;9.728;2022-09-09T13:22:12;22.40;99.90
17387;DHT22;8811;52.398;9.728;2022-09-09T13:24:44;22.20;99.90
17387;DHT22;8811;52.398;9.728;2022-09-09T13:27:22;22.00;99.90
17387;DHT22;8811;52.398;9.728;2022-09-09T13:29:51;21.70;99.90
17387;DHT22;8811;52.398;9.728;2022-09-09T13:32:20;21.50;99.90
17387;DHT22;8811;52.398;9.728;2022-09-09T13:34:53;21.20;99.90
17387;DHT22;8811;52.398;9.728;2022-09-09T13:37:27;20.90;99.90
17387;DHT22;8811;52.398;9.728;2022-09-09T13:39:56;20.70;99.90
17387;DHT22;8811;52.398;9.728;2022-09-09T13:42:24;20.60;99.90
17387;DHT22;8811;52.398;9.728;2022-09-09T13:44:52;20.50;99.90
17387;DHT22;8811;52.398;9.728;2022-09-09T13:47:26;20.40;99.90
17387;DHT22;8811;52.398;9.728;2022-09-09T13:49:55;20.40;99.90
17387;DHT22;8811;52.398;9.728;2022-09-09T13:52:23;20.40;99.90
17387;DHT22;8811;52.398;9.728;2022-09-09T13:54:58;20.40;99.90
17387;DHT22;8811;52.398;9.728;2022-09-09T13:57:26;20.40;99.90
17387;DHT22;8811;52.398;9.728;2022-09-09T13:59:53;20.40;99.90
17387;DHT22;8811;52.398;9.728;2022-09-09T14:02:22;20.40;99.90
17387;DHT22;8811;52.398;9.728;2022-09-09T14:04:50;20.40;99.90
17387;DHT22;8811;52.398;9.728;2022-09-09T14:07:20;20.40;99.90
17387;DHT22;8811;52.398;9.728;2022-09-09T14:09:49;20.40;99.90
17387;DHT22;8811;52.398;9.728;2022-09-09T14:12:17;20.50;99.90
17387;DHT22;8811;52.398;9.728;2022-09-09T14:14:48;20.60;99.90
17387;DHT22;8811;52.398;9.728;2022-09-09T14:17:15;20.60;99.90
17387;DHT22;8811;52.398;9.728;2022-09-09T14:19:43;20.80;99.90
17387;DHT22;8811;52.398;9.728;2022-09-09T14:22:11;20.80;99.90
17387;DHT22;8811;52.398;9.728;2022-09-09T14:24:38;20.90;99.90
17387;DHT22;8811;52.398;9.728;2022-09-09T14:27:07;20.90;99.90
17387;DHT22;8811;52.398;9.728;2022-09-09T14:29:35;20.80;99.90
17387;DHT22;8811;52.398;9.728;2022-09-09T14:32:07;20.80;99.90
17387;DHT22;8811;52.398;9.728;2022-09-09T14:34:34;21.20;99.90
17387;DHT22;8811;52.398;9.728;2022-09-09T14:37:02;23.40;99.90
17387;DHT22;8811;52.398;9.728;2022-09-09T14:39:29;25.50;99.90
17387;DHT22;8811;52.398;9.728;2022-09-09T14:41:56;27.90;99.90
17387;DHT22;8811;52.398;9.728;2022-09-09T14:44:25;30.30;99.90
17387;DHT22;8811;52.398;9.728;2022-09-09T14:46:52;31.50;95.90
17387;DHT22;8811;52.398;9.728;2022-09-09T14:49:19;30.40;95.40
17387;DHT22;8811;52.398;9.728;2022-09-09T14:51:46;29.30;97.40
17387;DHT22;8811;52.398;9.728;2022-09-09T14:54:13;28.80;97.20
17387;DHT22;8811;52.398;9.728;2022-09-09T14:56:41;29.20;96.40
17387;DHT22;8811;52.398;9.728;2022-09-09T14:59:08;30.80;95.30
17387;DHT22;8811;52.398;9.728;2022-09-09T15:01:37;32.30;93.80
17387;DHT22;8811;52.398;9.728;2022-09-09T15:04:04;33.20;89.20
17387;DHT22;8811;52.398;9.728;2022-09-09T15:06:32;32.30;90.80
17387;DHT22;8811;52.398;9.728;2022-09-09T15:09:00;31.30;91.20
17387;DHT22;8811;52.398;9.728;2022-09-09T15:11:27;30.50;90.90
17387;DHT22;8811;52.398;9.728;2022-09-09T15:13:56;29.60;91.70
17387;DHT22;8811;52.398;9.728;2022-09-09T15:16:24;30.20;91.30
17387;DHT22;8811;52.398;9.728;2022-09-09T15:18:55;31.40;91.50
17387;DHT22;8811;52.398;9.728;2022-09-09T15:21:23;32.30;89.80
17387;DHT22;8811;52.398;9.728;2022-09-09T15:23:50;32.30;87.60
17387;DHT22;8811;52.398;9.728;2022-09-09T15:26:18;30.90;89.40
17387;DHT22;8811;52.398;9.728;2022-09-09T15:28:46;29.60;90.20
17387;DHT22;8811;52.398;9.728;2022-09-09T15:31:15;28.20;91.10
17387;DHT22;8811;52.398;9.728;2022-09-09T15:33:46;27.30;93.50
17387;DHT22;8811;52.398;9.728;2022-09-09T15:36:16;26.70;93.70
17387;DHT22;8811;52.398;9.728;2022-09-09T15:38:46;26.00;95.20
17387;DHT22;8811;52.398;9.728;2022-09-09T15:41:14;25.50;96.30
17387;DHT22;8811;52.398;9.728;2022-09-09T15:43:43;25.10;97.00
17387;DHT22;8811;52.398;9.728;2022-09-09T15:46:21;24.80;97.90
17387;DHT22;8811;52.398;9.728;2022-09-09T15:48:51;24.50;98.80
17387;DHT22;8811;52.398;9.728;2022-09-09T15:51:21;24.30;99.20
17387;DHT22;8811;52.398;9.728;2022-09-09T15:53:57;24.00;99.30
17387;DHT22;8811;52.398;9.728;2022-09-09T15:56:26;23.80;99.90
17387;DHT22;8811;52.398;9.728;2022-09-09T15:58:54;23.50;99.90
17387;DHT22;8811;52.398;9.728;2022-09-09T16:01:23;23.40;99.90
17387;DHT22;8811;52.398;9.728;2022-09-09T16:03:50;23.20;99.90
17387;DHT22;8811;52.398;9.728;2022-09-09T16:06:18;23.20;99.90
17387;DHT22;8811;52.398;9.728;2022-09-09T16:08:49;23.00;99.90
17387;DHT22;8811;52.398;9.728;2022-09-09T16:11:17;23.00;99.90
17387;DHT22;8811;52.398;9.728;2022-09-09T16:13:45;22.90;99.90
17387;DHT22;8811;52.398;9.728;2022-09-09T16:16:13;22.90;99.90
17387;DHT22;8811;52.398;9.728;2022-09-09T16:18:42;22.70;99.90
17387;DHT22;8811;52.398;9.728;2022-09-09T16:21:13;22.70;99.90
17387;DHT22;8811;52.398;9.728;2022-09-09T16:23:40;22.60;99.90
17387;DHT22;8811;52.398;9.728;2022-09-09T16:26:09;22.50;99.90
17387;DHT22;8811;52.398;9.728;2022-09-09T16:28:37;22.40;99.90
17387;DHT22;8811;52.398;9.728;2022-09-09T16:31:04;22.20;99.90
17387;DHT22;8811;52.398;9.728;2022-09-09T16:33:31;22.10;99.90
17387;DHT22;8811;52.398;9.728;2022-09-09T16:36:04;21.90;99.90
17387;DHT22;8811;52.398;9.728;2022-09-09T16:38:31;21.80;99.90
17387;DHT22;8811;52.398;9.728;2022-09-09T16:40:58;21.60;99.90
17387;DHT22;8811;52.398;9.728;2022-09-09T16:43:27;21.50;99.90
17387;DHT22;8811;52.398;9.728;2022-09-09T16:45:54;21.40;99.90
17387;DHT22;8811;52.398;9.728;2022-09-09T16:48:25;21.30;99.90
17387;DHT22;8811;52.398;9.728;2022-09-09T16:50:53;21.20;99.90
17387;DHT22;8811;52.398;9.728;2022-09-09T16:53:21;21.10;99.90
17387;DHT22;8811;52.398;9.728;2022-09-09T16:55:48;21.10;99.90
17387;DHT22;8811;52.398;9.728;2022-09-09T16:58:17;21.00;99.90
17387;DHT22;8811;52.398;9.728;2022-09-09T17:00:48;20.90;99.90
17387;DHT22;8811;52.398;9.728;2022-09-09T17:03:16;20.90;99.90
17387;DHT22;8811;52.398;9.728;2022-09-09T17:05:43;20.80;99.90
17387;DHT22;8811;52.398;9.728;2022-09-09T17:08:11;20.80;99.90
17387;DHT22;8811;52.398;9.728;2022-09-09T17:10:40;20.80;99.90
17387;DHT22;8811;52.398;9.728;2022-09-09T17:13:07;20.70;99.90
17387;DHT22;8811;52.398;9.728;2022-09-09T17:15:38;20.70;99.90
17387;DHT22;8811;52.398;9.728;2022-09-09T17:18:09;20.70;99.90
17387;DHT22;8811;52.398;9.728;2022-09-09T17:20:37;20.70;99.90
17387;DHT22;8811;52.398;9.728;2022-09-09T17:23:08;20.70;99.90
17387;DHT22;8811;52.398;9.728;2022-09-09T17:25:35;20.70;99.90
17387;DHT22;8811;52.398;9.728;2022-09-09T17:28:03;20.70;99.90
17387;DHT22;8811;52.398;9.728;2022-09-09T17:30:33;20.60;99.90
17387;DHT22;8811;52.398;9.728;2022-09-09T17:33:02;20.60;99.90
17387;DHT22;8811;52.398;9.728;2022-09-09T17:35:30;20.60;99.90
17387;DHT22;8811;52.398;9.728;2022-09-09T17:37:59;20.50;99.90
17387;DHT22;8811;52.398;9.728;2022-09-09T17:40:27;20.50;99.90
17387;DHT22;8811;52.398;9.728;2022-09-09T17:42:56;20.50;99.90
17387;DHT22;8811;52.398;9.728;2022-09-09T17:45:23;20.50;99.90
17387;DHT22;8811;52.398;9.728;2022-09-09T17:47:50;20.60;99.90
17387;DHT22;8811;52.398;9.728;2022-09-09T17:50:17;20.50;99.90
17387;DHT22;8811;52.398;9.728;2022-09-09T17:52:58;20.50;99.90
17387;DHT22;8811;52.398;9.728;2022-09-09T17:55:25;20.50;99.90
17387;DHT22;8811;52.398;9.728;2022-09-09T17:57:55;20.40;99.90
17387;DHT22;8811;52.398;9.728;2022-09-09T18:00:22;20.30;99.90
17387;DHT22;8811;52.398;9.728;2022-09-09T18:02:49;20.20;99.90
17387;DHT22;8811;52.398;9.728;2022-09-09T18:05:21;20.10;99.90
17387;DHT22;8811;52.398;9.728;2022-09-09T18:07:59;20.00;99.90
17387;DHT22;8811;52.398;9.728;2022-09-09T18:10:26;19.80;99.90
17387;DHT22;8811;52.398;9.728;2022-09-09T18:12:54;19.80;99.90
17387;DHT22;8811;52.398;9.728;2022-09-09T18:15:23;19.60;99.90
17387;DHT22;8811;52.398;9.728;2022-09-09T18:17:50;19.60;99.90
17387;DHT22;8811;52.398;9.728;2022-09-09T18:20:19;19.60;99.90
17387;DHT22;8811;52.398;9.728;2022-09-09T18:22:46;19.50;99.90
17387;DHT22;8811;52.398;9.728;2022-09-09T18:25:16;19.40;99.90
17387;DHT22;8811;52.398;9.728;2022-09-09T18:27:45;19.40;99.90
17387;DHT22;8811;52.398;9.728;2022-09-09T18:30:16;19.40;99.90
17387;DHT22;8811;52.398;9.728;2022-09-09T18:32:47;19.30;99.90
17387;DHT22;8811;52.398;9.728;2022-09-09T18:35:16;19.30;99.90
17387;DHT22;8811;52.398;9.728;2022-09-09T18:37:47;19.30;99.90
17387;DHT22;8811;52.398;9.728;2022-09-09T18:40:17;19.30;99.90
17387;DHT22;8811;52.398;9.728;2022-09-09T18:42:46;19.30;99.90
17387;DHT22;8811;52.398;9.728;2022-09-09T18:45:14;19.30;99.90
17387;DHT22;8811;52.398;9.728;2022-09-09T18:47:48;19.20;99.90
17387;DHT22;8811;52.398;9.728;2022-09-09T18:50:23;19.30;99.90
17387;DHT22;8811;52.398;9.728;2022-09-09T18:53:01;19.40;99.90
17387;DHT22;8811;52.398;9.728;2022-09-09T18:55:33;19.40;99.90
17387;DHT22;8811;52.398;9.728;2022-09-09T18:58:03;19.40;99.90
17387;DHT22;8811;52.398;9.728;2022-09-09T19:00:39;19.40;99.90
17387;DHT22;8811;52.398;9.728;2022-09-09T19:03:13;19.30;99.90
17387;DHT22;8811;52.398;9.728;2022-09-09T19:05:40;19.30;99.90
17387;DHT22;8811;52.398;9.728;2022-09-09T19:08:15;19.30;99.90
17387;DHT22;8811;52.398;9.728;2022-09-09T19:10:46;19.20;99.90
17387;DHT22;8811;52.398;9.728;2022-09-09T19:13:14;19.00;99.90
17387;DHT22;8811;52.398;9.728;2022-09-09T19:15:45;18.90;99.90
17387;DHT22;8811;52.398;9.728;2022-09-09T19:18:14;18.80;99.90
17387;DHT22;8811;52.398;9.728;2022-09-09T19:20:41;18.60;99.90
17387;DHT22;8811;52.398;9.728;2022-09-09T19:23:10;18.50;99.90
17387;DHT22;8811;52.398;9.728;2022-09-09T19:25:42;18.40;99.90
17387;DHT22;8811;52.398;9.728;2022-09-09T19:28:13;18.30;99.90
17387;DHT22;8811;52.398;9.728;2022-09-09T19:30:45;18.20;99.90
17387;DHT22;8811;52.398;9.728;2022-09-09T19:33:15;18.10;99.90
17387;DHT22;8811;52.398;9.728;2022-09-09T19:35:42;18.10;99.90
17387;DHT22;8811;52.398;9.728;2022-09-09T19:38:12;18.00;99.90
17387;DHT22;8811;52.398;9.728;2022-09-09T19:40:42;17.90;99.90
17387;DHT22;8811;52.398;9.728;2022-09-09T19:43:09;17.80;99.90
17387;DHT22;8811;52.398;9.728;2022-09-09T19:45:42;17.70;99.90
17387;DHT22;8811;52.398;9.728;2022-09-09T19:48:10;17.70;99.90
17387;DHT22;8811;52.398;9.728;2022-09-09T19:50:46;17.70;99.90
17387;DHT22;8811;52.398;9.728;2022-09-09T19:53:13;17.60;99.90
17387;DHT22;8811;52.398;9.728;2022-09-09T19:55:42;17.50;99.90
17387;DHT22;8811;52.398;9.728;2022-09-09T19:58:13;17.50;99.90
17387;DHT22;8811;52.398;9.728;2022-09-09T20:00:43;17.40;99.90
17387;DHT22;8811;52.398;9.728;2022-09-09T20:03:14;17.30;99.90
17387;DHT22;8811;52.398;9.728;2022-09-09T20:05:42;17.30;99.90
17387;DHT22;8811;52.398;9.728;2022-09-09T20:08:10;17.30;99.90
17387;DHT22;8811;52.398;9.728;2022-09-09T20:10:39;17.20;99.90
17387;DHT22;8811;52.398;9.728;2022-09-09T20:13:06;17.20;99.90
17387;DHT22;8811;52.398;9.728;2022-09-09T20:15:33;17.10;99.90
17387;DHT22;8811;52.398;9.728;2022-09-09T20:18:09;17.10;99.90
17387;DHT22;8811;52.398;9.728;2022-09-09T20:20:39;17.00;99.90
17387;DHT22;8811;52.398;9.728;2022-09-09T20:23:07;17.00;99.90
17387;DHT22;8811;52.398;9.728;2022-09-09T20:25:39;17.00;99.90
17387;DHT22;8811;52.398;9.728;2022-09-09T20:28:14;17.00;99.90
17387;DHT22;8811;52.398;9.728;2022-09-09T20:30:46;16.90;99.90
17387;DHT22;8811;52.398;9.728;2022-09-09T20:33:17;16.90;99.90
17387;DHT22;8811;52.398;9.728;2022-09-09T20:35:46;16.90;99.90
17387;DHT22;8811;52.398;9.728;2022-09-09T20:38:15;16.90;99.90
17387;DHT22;8811;52.398;9.728;2022-09-09T20:40:47;16.90;99.90
17387;DHT22;8811;52.398;9.728;2022-09-09T20:43:20;16.90;99.90
17387;DHT22;8811;52.398;9.728;2022-09-09T20:45:48;16.90;99.90
17387;DHT22;8811;52.398;9.728;2022-09-09T20:48:20;16.90;99.90
17387;DHT22;8811;52.398;9.728;2022-09-09T20:50:51;16.80;99.90
17387;DHT22;8811;52.398;9.728;2022-09-09T20:53:25;16.80;99.90
17387;DHT22;8811;52.398;9.728;2022-09-09T20:55:53;16.80;99.90
17387;DHT22;8811;52.398;9.728;2022-09-09T20:58:24;16.80;99.90
17387;DHT22;8811;52.398;9.728;2022-09-09T21:01:00;16.80;99.90
17387;DHT22;8811;52.398;9.728;2022-09-09T21:03:29;16.70;99.90
17387;DHT22;8811;52.398;9.728;2022-09-09T21:05:57;16.70;99.90
17387;DHT22;8811;52.398;9.728;2022-09-09T21:08:25;16.70;99.90
17387;DHT22;8811;52.398;9.728;2022-09-09T21:10:52;16.60;99.90
17387;DHT22;8811;52.398;9.728;2022-09-09T21:13:20;16.60;99.90
17387;DHT22;8811;52.398;9.728;2022-09-09T21:15:47;16.60;99.90
17387;DHT22;8811;52.398;9.728;2022-09-09T21:18:15;16.60;99.90
17387;DHT22;8811;52.398;9.728;2022-09-09T21:20:44;16.60;99.90
17387;DHT22;8811;52.398;9.728;2022-09-09T21:23:14;16.60;99.90
17387;DHT22;8811;52.398;9.728;2022-09-09T21:25:42;16.50;99.90
17387;DHT22;8811;52.398;9.728;2022-09-09T21:28:11;16.50;99.90
17387;DHT22;8811;52.398;9.728;2022-09-09T21:30:38;16.50;99.90
17387;DHT22;8811;52.398;9.728;2022-09-09T21:33:06;16.50;99.90
17387;DHT22;8811;52.398;9.728;2022-09-09T21:35:38;16.60;99.90
17387;DHT22;8811;52.398;9.728;2022-09-09T21:41:05;16.60;99.90
17387;DHT22;8811;52.398;9.728;2022-09-09T21:43:37;16.60;99.90
17387;DHT22;8811;52.398;9.728;2022-09-09T21:46:11;16.60;99.90
17387;DHT22;8811;52.398;9.728;2022-09-09T21:48:42;16.60;99.90
17387;DHT22;8811;52.398;9.728;2022-09-09T21:51:14;16.60;99.90
17387;DHT22;8811;52.398;9.728;2022-09-09T21:53:52;16.60;99.90
17387;DHT22;8811;52.398;9.728;2022-09-09T21:56:35;16.60;99.90
17387;DHT22;8811;52.398;9.728;2022-09-09T21:59:07;16.60;99.90
17387;DHT22;8811;52.398;9.728;2022-09-09T22:01:36;16.70;99.90
17387;DHT22;8811;52.398;9.728;2022-09-09T22:04:10;16.70;99.90
17387;DHT22;8811;52.398;9.728;2022-09-09T22:06:37;16.70;99.90
17387;DHT22;8811;52.398;9.728;2022-09-09T22:09:06;16.60;99.90
17387;DHT22;8811;52.398;9.728;2022-09-09T22:11:34;16.60;99.90
